createdAt,value
2023-04-17T00:00:24.756Z,95040.00
2023-04-17T00:01:24.806Z,95040.00
2023-04-17T00:02:24.867Z,95038.00
2023-04-17T00:03:24.930Z,95036.00
2023-04-17T00:04:24.927Z,95034.00
2023-04-17T00:05:24.841Z,95034.00
2023-04-17T00:06:24.805Z,95034.00
2023-04-17T00:07:24.828Z,95034.00
2023-04-17T00:08:24.810Z,95034.00
2023-04-17T00:09:24.810Z,95036.00
2023-04-17T00:10:24.843Z,95034.00
2023-04-17T00:11:24.845Z,95034.00
2023-04-17T00:12:24.812Z,95032.00
2023-04-17T00:13:24.867Z,95032.00
2023-04-17T00:14:24.810Z,95034.00
2023-04-17T00:15:24.821Z,95034.00
2023-04-17T00:16:24.817Z,95034.00
2023-04-17T00:17:24.860Z,95034.00
2023-04-17T00:18:24.792Z,95036.00
2023-04-17T00:19:24.805Z,95034.00
2023-04-17T00:20:24.766Z,95034.00
2023-04-17T00:21:24.795Z,95032.00
2023-04-17T00:22:24.764Z,95034.00
2023-04-17T00:23:24.769Z,95036.00
2023-04-17T00:24:24.809Z,95032.00
2023-04-17T00:25:24.800Z,95034.00
2023-04-17T00:26:24.791Z,95034.00
2023-04-17T00:27:24.780Z,95034.00
2023-04-17T00:28:24.816Z,95032.00
2023-04-17T00:29:24.819Z,95032.00
2023-04-17T00:30:24.788Z,95032.00
2023-04-17T00:31:24.827Z,95034.00
2023-04-17T00:32:24.780Z,95034.00
2023-04-17T00:33:24.797Z,95034.00
2023-04-17T00:34:24.788Z,95032.00
2023-04-17T00:35:24.791Z,95034.00
2023-04-17T00:36:24.780Z,95034.00
2023-04-17T00:37:24.754Z,95032.00
2023-04-17T00:38:24.785Z,95030.00
2023-04-17T00:39:24.790Z,95032.00
2023-04-17T00:40:24.797Z,95030.00
2023-04-17T00:41:24.776Z,95030.00
2023-04-17T00:42:24.789Z,95030.00
2023-04-17T00:43:24.813Z,95030.00
2023-04-17T00:44:24.805Z,95030.00
2023-04-17T00:45:24.781Z,95028.00
2023-04-17T00:46:24.862Z,95028.00
2023-04-17T00:47:24.836Z,95030.00
2023-04-17T00:48:24.850Z,95030.00
2023-04-17T00:49:24.850Z,95024.00
2023-04-17T00:50:24.849Z,95024.00
2023-04-17T00:51:24.838Z,95024.00
2023-04-17T00:52:24.875Z,95024.00
2023-04-17T00:53:24.850Z,95026.00
2023-04-17T00:54:24.886Z,95026.00
2023-04-17T00:55:24.903Z,95024.00
2023-04-17T00:56:24.905Z,95026.00
2023-04-17T00:57:24.860Z,95024.00
2023-04-17T00:58:24.872Z,95024.00
2023-04-17T00:59:24.872Z,95022.00
2023-04-17T01:00:24.888Z,95022.00
2023-04-17T01:01:24.924Z,95026.00
2023-04-17T01:02:25.055Z,95026.00
2023-04-17T01:03:25.015Z,95022.00
2023-04-17T01:04:25.008Z,95022.00
2023-04-17T01:05:24.937Z,95024.00
2023-04-17T01:06:24.918Z,95024.00
2023-04-17T01:07:24.949Z,95024.00
2023-04-17T01:08:24.931Z,95022.00
2023-04-17T01:09:24.936Z,95026.00
2023-04-17T01:10:24.957Z,95022.00
2023-04-17T01:11:24.951Z,95021.00
2023-04-17T01:12:24.989Z,95024.00
2023-04-17T01:13:24.988Z,95024.00
2023-04-17T01:14:24.978Z,95026.00
2023-04-17T01:15:25.466Z,95024.00
2023-04-17T01:16:25.004Z,95026.00
2023-04-17T01:17:25.054Z,95026.00
2023-04-17T01:18:25.024Z,95026.00
2023-04-17T01:19:25.003Z,95026.00
2023-04-17T01:20:25.004Z,95026.00
2023-04-17T01:21:25.032Z,95026.00
2023-04-17T01:22:25.033Z,95026.00
2023-04-17T01:23:25.047Z,95024.00
2023-04-17T01:24:25.035Z,95030.00
2023-04-17T01:25:25.052Z,95024.00
2023-04-17T01:26:25.067Z,95026.00
2023-04-17T01:27:25.084Z,95024.00
2023-04-17T01:28:25.087Z,95024.00
2023-04-17T01:29:25.084Z,95026.00
2023-04-17T01:30:25.094Z,95026.00
2023-04-17T01:31:25.121Z,95022.00
2023-04-17T01:32:25.118Z,95021.00
2023-04-17T01:33:25.122Z,95022.00
2023-04-17T01:34:25.146Z,95022.00
2023-04-17T01:35:25.128Z,95024.00
2023-04-17T01:36:25.158Z,95022.00
2023-04-17T01:37:25.188Z,95021.00
2023-04-17T01:38:25.185Z,95022.00
2023-04-17T01:39:25.200Z,95021.00
2023-04-17T01:40:25.208Z,95021.00
2023-04-17T01:41:25.172Z,95022.00
2023-04-17T01:42:25.205Z,95021.00
2023-04-17T01:43:25.217Z,95022.00
2023-04-17T01:44:25.246Z,95021.00
2023-04-17T01:45:25.239Z,95021.00
2023-04-17T01:46:25.334Z,95021.00
2023-04-17T01:47:25.385Z,95021.00
2023-04-17T01:48:25.293Z,95021.00
2023-04-17T01:49:25.316Z,95021.00
2023-04-17T01:50:25.354Z,95021.00
2023-04-17T01:51:25.346Z,95022.00
2023-04-17T01:52:25.394Z,95022.00
2023-04-17T01:53:25.390Z,95021.00
2023-04-17T01:54:25.414Z,95021.00
2023-04-17T01:55:25.430Z,95021.00
2023-04-17T01:56:25.436Z,95021.00
2023-04-17T01:57:25.432Z,95022.00
2023-04-17T01:58:25.468Z,95022.00
2023-04-17T01:59:25.515Z,95022.00
2023-04-17T02:00:25.504Z,95021.00
2023-04-17T02:01:25.516Z,95021.00
2023-04-17T02:02:25.689Z,95021.00
2023-04-17T02:03:25.665Z,95021.00
2023-04-17T02:04:25.684Z,95022.00
2023-04-17T02:05:25.558Z,95024.00
2023-04-17T02:06:25.606Z,95024.00
2023-04-17T02:07:25.603Z,95019.00
2023-04-17T02:08:25.632Z,95026.00
2023-04-17T02:09:25.672Z,95026.00
2023-04-17T02:10:25.695Z,95022.00
2023-04-17T02:11:25.708Z,95021.00
2023-04-17T02:12:25.742Z,95021.00
2023-04-17T02:13:25.722Z,95022.00
2023-04-17T02:14:25.744Z,95022.00
2023-04-17T02:15:25.794Z,95022.00
2023-04-17T02:16:25.855Z,95022.00
2023-04-17T02:17:25.933Z,95022.00
2023-04-17T02:18:25.841Z,95022.00
2023-04-17T02:19:25.862Z,95024.00
2023-04-17T02:20:25.846Z,95026.00
2023-04-17T02:21:25.916Z,95022.00
2023-04-17T02:22:25.902Z,95026.00
2023-04-17T02:23:25.934Z,95028.00
2023-04-17T02:24:25.928Z,95026.00
2023-04-17T02:25:25.981Z,95028.00
2023-04-17T02:26:26.022Z,95026.00
2023-04-17T02:27:26.021Z,95026.00
2023-04-17T02:28:26.015Z,95026.00
2023-04-17T02:29:26.042Z,95028.00
2023-04-17T02:30:26.138Z,95024.00
2023-04-17T02:31:26.135Z,95024.00
2023-04-17T02:32:26.165Z,95026.00
2023-04-17T02:33:26.149Z,95024.00
2023-04-17T02:34:26.177Z,95026.00
2023-04-17T02:35:26.162Z,95024.00
2023-04-17T02:36:26.182Z,95026.00
2023-04-17T02:37:26.215Z,95026.00
2023-04-17T02:38:26.252Z,95026.00
2023-04-17T02:39:26.259Z,95026.00
2023-04-17T02:40:26.268Z,95026.00
2023-04-17T02:41:26.312Z,95026.00
2023-04-17T02:42:26.350Z,95024.00
2023-04-17T02:43:26.372Z,95022.00
2023-04-17T02:44:26.393Z,95022.00
2023-04-17T02:45:26.397Z,95022.00
2023-04-17T02:46:26.446Z,95024.00
2023-04-17T02:47:26.497Z,95024.00
2023-04-17T02:48:26.488Z,95019.00
2023-04-17T02:49:26.463Z,95024.00
2023-04-17T02:50:26.469Z,95022.00
2023-04-17T02:51:26.557Z,95022.00
2023-04-17T02:52:26.532Z,95021.00
2023-04-17T02:53:26.554Z,95022.00
2023-04-17T02:54:26.555Z,95022.00
2023-04-17T02:55:26.584Z,95022.00
2023-04-17T02:56:26.631Z,95022.00
2023-04-17T02:57:26.654Z,95024.00
2023-04-17T02:58:26.620Z,95024.00
2023-04-17T02:59:26.636Z,95021.00
2023-04-17T03:00:26.654Z,95021.00
2023-04-17T03:01:26.784Z,95019.00
2023-04-17T03:02:26.834Z,95019.00
2023-04-17T03:03:26.936Z,95019.00
2023-04-17T03:04:26.741Z,95019.00
2023-04-17T03:05:26.756Z,95017.00
2023-04-17T03:06:26.802Z,95015.00
2023-04-17T03:07:26.767Z,95015.00
2023-04-17T03:08:26.802Z,95017.00
2023-04-17T03:09:26.820Z,95019.00
2023-04-17T03:10:26.860Z,95019.00
2023-04-17T03:11:26.864Z,95022.00
2023-04-17T03:12:26.866Z,95021.00
2023-04-17T03:13:26.902Z,95022.00
2023-04-17T03:14:26.927Z,95022.00
2023-04-17T03:15:26.940Z,95022.00
2023-04-17T03:16:27.031Z,95022.00
2023-04-17T03:17:27.028Z,95024.00
2023-04-17T03:18:27.048Z,95022.00
2023-04-17T03:19:27.059Z,95021.00
2023-04-17T03:20:27.071Z,95022.00
2023-04-17T03:21:27.068Z,95022.00
2023-04-17T03:22:27.097Z,95021.00
2023-04-17T03:23:27.122Z,95021.00
2023-04-17T03:24:27.128Z,95022.00
2023-04-17T03:25:27.157Z,95021.00
2023-04-17T03:26:27.182Z,95021.00
2023-04-17T03:27:27.188Z,95024.00
2023-04-17T03:28:27.295Z,95024.00
2023-04-17T03:29:27.366Z,95026.00
2023-04-17T03:30:27.272Z,95026.00
2023-04-17T03:31:27.353Z,95028.00
2023-04-17T03:32:27.375Z,95028.00
2023-04-17T03:33:27.313Z,95032.00
2023-04-17T03:34:27.317Z,95028.00
2023-04-17T03:35:27.360Z,95028.00
2023-04-17T03:36:27.438Z,95030.00
2023-04-17T03:37:27.402Z,95032.00
2023-04-17T03:38:27.455Z,95034.00
2023-04-17T03:39:27.463Z,95034.00
2023-04-17T03:40:27.470Z,95034.00
2023-04-17T03:41:27.500Z,95036.00
2023-04-17T03:42:27.517Z,95032.00
2023-04-17T03:43:27.551Z,95034.00
2023-04-17T03:44:27.601Z,95036.00
2023-04-17T03:45:27.616Z,95036.00
2023-04-17T03:46:27.663Z,95038.00
2023-04-17T03:47:27.752Z,95038.00
2023-04-17T03:48:27.661Z,95038.00
2023-04-17T03:49:27.695Z,95038.00
2023-04-17T03:50:27.737Z,95038.00
2023-04-17T03:51:27.747Z,95040.00
2023-04-17T03:52:27.782Z,95040.00
2023-04-17T03:53:27.761Z,95042.00
2023-04-17T03:54:27.805Z,95042.00
2023-04-17T03:55:27.850Z,95044.00
2023-04-17T03:56:27.877Z,95044.00
2023-04-17T03:57:27.923Z,95046.00
2023-04-17T03:58:27.966Z,95048.00
2023-04-17T03:59:27.953Z,95046.00
2023-04-17T04:00:27.969Z,95048.00
2023-04-17T04:01:28.063Z,95048.00
2023-04-17T04:02:28.113Z,95050.00
2023-04-17T04:03:28.314Z,95050.00
2023-04-17T04:04:28.223Z,95048.00
2023-04-17T04:05:28.235Z,95050.00
2023-04-17T04:06:28.134Z,95050.00
2023-04-17T04:07:28.121Z,95052.00
2023-04-17T04:08:28.180Z,95050.00
2023-04-17T04:09:28.206Z,95050.00
2023-04-17T04:10:28.246Z,95054.00
2023-04-17T04:11:28.250Z,95050.00
2023-04-17T04:12:28.290Z,95050.00
2023-04-17T04:13:28.297Z,95050.00
2023-04-17T04:14:28.352Z,95050.00
2023-04-17T04:15:28.342Z,95048.00
2023-04-17T04:16:28.478Z,95046.00
2023-04-17T04:17:28.418Z,95048.00
2023-04-17T04:18:28.435Z,95048.00
2023-04-17T04:19:28.437Z,95046.00
2023-04-17T04:20:28.470Z,95044.00
2023-04-17T04:21:28.493Z,95046.00
2023-04-17T04:22:28.503Z,95046.00
2023-04-17T04:23:28.508Z,95048.00
2023-04-17T04:24:28.574Z,95050.00
2023-04-17T04:25:28.542Z,95048.00
2023-04-17T04:26:28.539Z,95050.00
2023-04-17T04:27:28.604Z,95050.00
2023-04-17T04:28:28.576Z,95048.00
2023-04-17T04:29:28.586Z,95050.00
2023-04-17T04:30:28.626Z,95050.00
2023-04-17T04:31:28.673Z,95048.00
2023-04-17T04:32:28.668Z,95050.00
2023-04-17T04:33:28.677Z,95050.00
2023-04-17T04:34:28.679Z,95044.00
2023-04-17T04:35:28.694Z,95044.00
2023-04-17T04:36:28.726Z,95046.00
2023-04-17T04:37:28.767Z,95044.00
2023-04-17T04:38:28.815Z,95044.00
2023-04-17T04:39:28.811Z,95044.00
2023-04-17T04:40:28.858Z,95044.00
2023-04-17T04:41:28.864Z,95046.00
2023-04-17T04:42:28.928Z,95044.00
2023-04-17T04:43:28.916Z,95044.00
2023-04-17T04:44:28.910Z,95044.00
2023-04-17T04:45:28.910Z,95046.00
2023-04-17T04:46:28.971Z,95048.00
2023-04-17T04:47:29.096Z,95046.00
2023-04-17T04:48:29.011Z,95044.00
2023-04-17T04:49:29.012Z,95046.00
2023-04-17T04:50:29.060Z,95044.00
2023-04-17T04:51:29.065Z,95046.00
2023-04-17T04:52:29.091Z,95046.00
2023-04-17T04:53:29.121Z,95048.00
2023-04-17T04:54:29.132Z,95052.00
2023-04-17T04:55:29.124Z,95050.00
2023-04-17T04:56:31.692Z,95054.00
2023-04-17T04:57:29.179Z,95052.00
2023-04-17T04:58:29.136Z,95050.00
2023-04-17T04:59:29.149Z,95056.00
2023-04-17T05:00:29.110Z,95056.00
2023-04-17T05:01:29.213Z,95056.00
2023-04-17T05:02:29.181Z,95054.00
2023-04-17T05:03:29.214Z,95052.00
2023-04-17T05:04:29.163Z,95052.00
2023-04-17T05:05:29.094Z,95054.00
2023-04-17T05:06:29.100Z,95054.00
2023-04-17T05:07:29.093Z,95052.00
2023-04-17T05:08:29.077Z,95054.00
2023-04-17T05:09:29.112Z,95056.00
2023-04-17T05:10:29.120Z,95058.00
2023-04-17T05:11:29.046Z,95058.00
2023-04-17T05:12:29.045Z,95058.00
2023-04-17T05:13:29.025Z,95056.00
2023-04-17T05:14:29.047Z,95054.00
2023-04-17T05:15:29.058Z,95056.00
2023-04-17T05:16:29.086Z,95058.00
2023-04-17T05:17:29.048Z,95062.00
2023-04-17T05:18:29.016Z,95064.00
2023-04-17T05:19:29.040Z,95064.00
2023-04-17T05:20:29.007Z,95064.00
2023-04-17T05:21:31.113Z,95066.00
2023-04-17T05:22:28.972Z,95064.00
2023-04-17T05:23:28.947Z,95062.00
2023-04-17T05:24:28.945Z,95064.00
2023-04-17T05:25:28.963Z,95062.00
2023-04-17T05:26:28.960Z,95068.00
2023-04-17T05:27:28.934Z,95068.00
2023-04-17T05:28:29.747Z,95066.00
2023-04-17T05:29:29.067Z,95068.00
2023-04-17T05:30:29.002Z,95071.00
2023-04-17T05:31:29.063Z,95069.00
2023-04-17T05:32:29.055Z,95071.00
2023-04-17T05:33:29.033Z,95075.00
2023-04-17T05:34:29.018Z,95075.00
2023-04-17T05:35:29.003Z,95073.00
2023-04-17T05:36:29.011Z,95075.00
2023-04-17T05:37:29.035Z,95077.00
2023-04-17T05:38:29.107Z,95077.00
2023-04-17T05:39:29.128Z,95077.00
2023-04-17T05:40:29.138Z,95075.00
2023-04-17T05:41:29.227Z,95081.00
2023-04-17T05:42:29.275Z,95079.00
2023-04-17T05:43:29.564Z,95079.00
2023-04-17T05:44:29.376Z,95077.00
2023-04-17T05:45:29.443Z,95079.00
2023-04-17T05:46:29.493Z,95089.00
2023-04-17T05:47:29.557Z,95093.00
2023-04-17T05:48:29.496Z,95093.00
2023-04-17T05:49:29.493Z,95097.00
2023-04-17T05:50:29.536Z,95095.00
2023-04-17T05:51:29.539Z,95093.00
2023-04-17T05:52:29.558Z,95095.00
2023-04-17T05:53:29.571Z,95097.00
2023-04-17T05:54:29.543Z,95099.00
2023-04-17T05:55:29.573Z,95099.00
2023-04-17T05:56:29.553Z,95095.00
2023-04-17T05:57:29.572Z,95093.00
2023-04-17T05:58:29.572Z,95089.00
2023-04-17T05:59:29.639Z,95093.00
2023-04-17T06:00:29.663Z,95091.00
2023-04-17T06:01:29.668Z,95091.00
2023-04-17T06:02:29.920Z,95091.00
2023-04-17T06:03:30.022Z,95093.00
2023-04-17T06:04:30.057Z,95093.00
2023-04-17T06:05:30.015Z,95093.00
2023-04-17T06:06:29.929Z,95097.00
2023-04-17T06:07:30.041Z,95093.00
2023-04-17T06:08:30.051Z,95093.00
2023-04-17T06:09:30.111Z,95095.00
2023-04-17T06:10:31.133Z,95091.00
2023-04-17T06:11:30.174Z,95095.00
2023-04-17T06:12:30.216Z,95101.00
2023-04-17T06:13:30.286Z,95099.00
2023-04-17T06:14:30.292Z,95099.00
2023-04-17T06:15:31.059Z,95101.00
2023-04-17T06:16:30.393Z,95101.00
2023-04-17T06:17:30.445Z,95097.00
2023-04-17T06:18:30.429Z,95101.00
2023-04-17T06:19:30.456Z,95101.00
2023-04-17T06:20:30.491Z,95103.00
2023-04-17T06:21:30.560Z,95101.00
2023-04-17T06:22:30.525Z,95105.00
2023-04-17T06:23:30.551Z,95103.00
2023-04-17T06:24:30.567Z,95103.00
2023-04-17T06:25:30.619Z,95105.00
2023-04-17T06:26:31.065Z,95109.00
2023-04-17T06:27:52.196Z,95111.00
2023-04-17T06:28:52.144Z,95109.00
2023-04-17T06:29:52.134Z,95113.00
2023-04-17T06:30:52.177Z,95113.00
2023-04-17T06:31:52.117Z,95113.00
2023-04-17T06:32:52.206Z,95116.00
2023-04-17T06:33:52.065Z,95113.00
2023-04-17T06:34:58.970Z,95116.00
2023-04-17T06:35:53.051Z,95107.00
2023-04-17T06:36:52.042Z,95109.00
2023-04-17T06:37:52.101Z,95105.00
2023-04-17T06:38:52.067Z,95107.00
2023-04-17T06:39:52.069Z,95109.00
2023-04-17T06:40:52.802Z,95107.00
2023-04-17T06:41:52.066Z,95109.00
2023-04-17T06:42:52.022Z,95126.00
2023-04-17T06:43:52.000Z,95118.00
2023-04-17T06:44:52.018Z,95122.00
2023-04-17T06:45:52.184Z,95120.00
2023-04-17T06:46:52.127Z,95120.00
2023-04-17T06:47:52.199Z,95120.00
2023-04-17T06:48:52.211Z,95122.00
2023-04-17T06:49:52.235Z,95120.00
2023-04-17T06:50:52.358Z,95120.00
2023-04-17T06:51:52.294Z,95118.00
2023-04-17T06:52:52.422Z,95118.00
2023-04-17T06:53:52.468Z,95118.00
2023-04-17T06:54:52.448Z,95120.00
2023-04-17T06:55:52.526Z,95122.00
2023-04-17T06:56:52.573Z,95122.00
2023-04-17T06:57:52.618Z,95120.00
2023-04-17T06:58:52.648Z,95122.00
2023-04-17T06:59:52.771Z,95124.00
2023-04-17T07:00:52.759Z,95122.00
2023-04-17T07:01:54.233Z,95120.00
2023-04-17T07:02:52.970Z,95126.00
2023-04-17T07:03:52.973Z,95124.00
2023-04-17T07:04:53.004Z,95126.00
2023-04-17T07:05:52.999Z,95128.00
2023-04-17T07:06:53.009Z,95126.00
2023-04-17T07:07:53.008Z,95128.00
2023-04-17T07:08:55.378Z,95128.00
2023-04-17T07:09:53.210Z,95130.00
2023-04-17T07:10:53.256Z,95130.00
2023-04-17T07:11:53.299Z,95130.00
2023-04-17T07:12:53.321Z,95132.00
2023-04-17T07:13:53.348Z,95130.00
2023-04-17T07:14:53.343Z,95132.00
2023-04-17T07:15:53.483Z,95132.00
2023-04-17T07:16:53.566Z,95132.00
2023-04-17T07:17:53.591Z,95136.00
2023-04-17T07:18:53.498Z,95136.00
2023-04-17T07:19:53.560Z,95138.00
2023-04-17T07:20:53.613Z,95148.00
2023-04-17T07:21:53.658Z,95150.00
2023-04-17T07:22:53.654Z,95146.00
2023-04-17T07:23:53.662Z,95146.00
2023-04-17T07:24:53.730Z,95146.00
2023-04-17T07:25:53.754Z,95146.00
2023-04-17T07:26:53.791Z,95136.00
2023-04-17T07:27:53.827Z,95138.00
2023-04-17T07:28:53.842Z,95136.00
2023-04-17T07:29:53.863Z,95136.00
2023-04-17T07:30:53.860Z,95138.00
2023-04-17T07:31:53.933Z,95134.00
2023-04-17T07:32:54.064Z,95124.00
2023-04-17T07:33:53.953Z,95126.00
2023-04-17T07:34:53.971Z,95126.00
2023-04-17T07:35:53.983Z,95124.00
2023-04-17T07:36:54.000Z,95124.00
2023-04-17T07:37:53.996Z,95126.00
2023-04-17T07:38:54.007Z,95130.00
2023-04-17T07:39:53.939Z,95136.00
2023-04-17T07:40:54.023Z,95136.00
2023-04-17T07:41:53.961Z,95136.00
2023-04-17T07:42:53.969Z,95134.00
2023-04-17T07:43:54.031Z,95136.00
2023-04-17T07:44:54.139Z,95138.00
2023-04-17T07:45:54.141Z,95136.00
2023-04-17T07:46:54.277Z,95138.00
2023-04-17T07:47:54.360Z,95138.00
2023-04-17T07:48:54.372Z,95134.00
2023-04-17T07:49:54.396Z,95136.00
2023-04-17T07:50:54.539Z,95136.00
2023-04-17T07:51:54.558Z,95130.00
2023-04-17T07:52:54.625Z,95132.00
2023-04-17T07:53:54.643Z,95130.00
2023-04-17T07:54:54.642Z,95130.00
2023-04-17T07:55:54.780Z,95128.00
2023-04-17T07:56:54.730Z,95128.00
2023-04-17T07:57:54.774Z,95128.00
2023-04-17T07:58:54.837Z,95128.00
2023-04-17T07:59:54.858Z,95132.00
2023-04-17T08:00:54.863Z,95128.00
2023-04-17T08:01:55.445Z,95130.00
2023-04-17T08:02:55.254Z,95132.00
2023-04-17T08:03:55.373Z,95130.00
2023-04-17T08:04:55.198Z,95132.00
2023-04-17T08:05:54.972Z,95132.00
2023-04-17T08:06:55.004Z,95132.00
2023-04-17T08:07:54.998Z,95132.00
2023-04-17T08:08:55.034Z,95132.00
2023-04-17T08:09:54.967Z,95132.00
2023-04-17T08:10:54.959Z,95134.00
2023-04-17T08:11:57.891Z,95134.00
2023-04-17T08:12:55.052Z,95134.00
2023-04-17T08:13:55.361Z,95132.00
2023-04-17T08:14:54.997Z,95130.00
2023-04-17T08:15:54.977Z,95136.00
2023-04-17T08:16:54.970Z,95136.00
2023-04-17T08:17:55.029Z,95136.00
2023-04-17T08:19:01.865Z,95136.00
2023-04-17T08:19:54.925Z,95134.00
2023-04-17T08:20:54.947Z,95134.00
2023-04-17T08:21:54.937Z,95134.00
2023-04-17T08:22:54.915Z,95136.00
2023-04-17T08:23:54.910Z,95134.00
2023-04-17T08:24:54.940Z,95122.00
2023-04-17T08:25:54.905Z,95122.00
2023-04-17T08:26:54.885Z,95120.00
2023-04-17T08:27:54.864Z,95116.00
2023-04-17T08:28:54.916Z,95113.00
2023-04-17T08:29:54.859Z,95115.00
2023-04-17T08:30:54.865Z,95111.00
2023-04-17T08:32:06.524Z,95111.00
2023-04-17T08:32:55.926Z,95113.00
2023-04-17T08:34:06.222Z,95109.00
2023-04-17T08:34:55.853Z,95109.00
2023-04-17T08:35:54.856Z,95109.00
2023-04-17T08:36:54.837Z,95105.00
2023-04-17T08:37:54.862Z,95105.00
2023-04-17T08:38:54.826Z,95107.00
2023-04-17T08:39:54.766Z,95107.00
2023-04-17T08:40:54.754Z,95105.00
2023-04-17T08:41:54.775Z,95116.00
2023-04-17T08:42:54.840Z,95113.00
2023-04-17T08:43:54.759Z,95116.00
2023-04-17T08:44:54.796Z,95113.00
2023-04-17T08:45:54.832Z,95115.00
2023-04-17T08:46:54.815Z,95111.00
2023-04-17T08:47:54.851Z,95111.00
2023-04-17T08:48:56.913Z,95113.00
2023-04-17T08:49:54.864Z,95111.00
2023-04-17T08:50:54.899Z,95111.00
2023-04-17T08:51:54.893Z,95111.00
2023-04-17T08:52:54.902Z,95109.00
2023-04-17T08:53:54.917Z,95107.00
2023-04-17T08:54:54.930Z,95107.00
2023-04-17T08:55:54.925Z,95103.00
2023-04-17T08:56:54.974Z,95103.00
2023-04-17T08:57:54.987Z,95107.00
2023-04-17T08:58:55.054Z,95103.00
2023-04-17T08:59:55.101Z,95101.00
2023-04-17T09:00:55.186Z,95097.00
2023-04-17T09:01:55.320Z,95099.00
2023-04-17T09:02:55.468Z,95097.00
2023-04-17T09:03:55.433Z,95095.00
2023-04-17T09:04:55.530Z,95099.00
2023-04-17T09:05:55.448Z,95099.00
2023-04-17T09:06:55.522Z,95099.00
2023-04-17T09:07:55.640Z,95085.00
2023-04-17T09:08:55.640Z,95089.00
2023-04-17T09:09:55.733Z,95099.00
2023-04-17T09:10:55.692Z,95095.00
2023-04-17T09:11:55.803Z,95095.00
2023-04-17T09:12:55.799Z,95103.00
2023-04-17T09:13:55.916Z,95093.00
2023-04-17T09:14:55.925Z,95093.00
2023-04-17T09:15:56.081Z,95095.00
2023-04-17T09:16:55.986Z,95095.00
2023-04-17T09:17:56.107Z,95093.00
2023-04-17T09:18:56.106Z,95093.00
2023-04-17T09:19:56.114Z,95093.00
2023-04-17T09:20:56.180Z,95089.00
2023-04-17T09:21:56.199Z,95089.00
2023-04-17T09:22:56.275Z,95085.00
2023-04-17T09:23:56.333Z,95083.00
2023-04-17T09:24:57.792Z,95089.00
2023-04-17T09:25:56.301Z,95085.00
2023-04-17T09:26:56.451Z,95087.00
2023-04-17T09:27:56.371Z,95085.00
2023-04-17T09:28:56.392Z,95073.00
2023-04-17T09:29:56.382Z,95073.00
2023-04-17T09:30:56.462Z,95073.00
2023-04-17T09:31:56.503Z,95073.00
2023-04-17T09:32:56.535Z,95073.00
2023-04-17T09:33:56.530Z,95073.00
2023-04-17T09:34:56.530Z,95071.00
2023-04-17T09:35:56.540Z,95071.00
2023-04-17T09:36:56.576Z,95069.00
2023-04-17T09:37:56.685Z,95091.00
2023-04-17T09:38:56.614Z,95083.00
2023-04-17T09:39:56.670Z,95087.00
2023-04-17T09:40:56.692Z,95083.00
2023-04-17T09:41:56.678Z,95083.00
2023-04-17T09:42:56.676Z,95083.00
2023-04-17T09:43:56.710Z,95083.00
2023-04-17T09:44:56.689Z,95069.00
2023-04-17T09:45:56.733Z,95069.00
2023-04-17T09:46:56.877Z,95071.00
2023-04-17T09:47:56.885Z,95073.00
2023-04-17T09:48:56.886Z,95071.00
2023-04-17T09:49:56.979Z,95071.00
2023-04-17T09:50:57.048Z,95071.00
2023-04-17T09:51:57.173Z,95073.00
2023-04-17T09:52:57.172Z,95071.00
2023-04-17T09:53:57.212Z,95071.00
2023-04-17T09:54:57.331Z,95071.00
2023-04-17T09:55:57.383Z,95071.00
2023-04-17T09:56:57.402Z,95071.00
2023-04-17T09:57:57.396Z,95071.00
2023-04-17T09:58:57.406Z,95073.00
2023-04-17T09:59:57.414Z,95071.00
2023-04-17T10:00:57.416Z,95071.00
2023-04-17T10:01:57.434Z,95075.00
2023-04-17T10:02:57.577Z,95073.00
2023-04-17T10:03:57.680Z,95069.00
2023-04-17T10:04:57.503Z,95071.00
2023-04-17T10:05:57.552Z,95073.00
2023-04-17T10:06:57.556Z,95073.00
2023-04-17T10:07:57.590Z,95071.00
2023-04-17T10:08:57.594Z,95071.00
2023-04-17T10:09:57.632Z,95071.00
2023-04-17T10:10:57.671Z,95071.00
2023-04-17T10:11:57.699Z,95069.00
2023-04-17T10:12:57.650Z,95066.00
2023-04-17T10:13:57.709Z,95068.00
2023-04-17T10:14:57.711Z,95068.00
2023-04-17T10:15:57.752Z,95064.00
2023-04-17T10:16:57.719Z,95064.00
2023-04-17T10:17:57.739Z,95064.00
2023-04-17T10:18:57.684Z,95062.00
2023-04-17T10:19:57.753Z,95060.00
2023-04-17T10:20:57.794Z,95060.00
2023-04-17T10:21:58.414Z,95064.00
2023-04-17T10:22:57.873Z,95062.00
2023-04-17T10:23:57.926Z,95062.00
2023-04-17T10:24:57.989Z,95062.00
2023-04-17T10:25:58.090Z,95060.00
2023-04-17T10:26:58.102Z,95062.00
2023-04-17T10:27:58.136Z,95060.00
2023-04-17T10:28:58.211Z,95058.00
2023-04-17T10:29:58.517Z,95056.00
2023-04-17T10:30:58.190Z,95054.00
2023-04-17T10:31:58.258Z,95056.00
2023-04-17T10:32:58.279Z,95052.00
2023-04-17T10:33:58.281Z,95060.00
2023-04-17T10:34:58.310Z,95060.00
2023-04-17T10:35:58.392Z,95058.00
2023-04-17T10:36:58.391Z,95056.00
2023-04-17T10:37:58.434Z,95054.00
2023-04-17T10:38:58.437Z,95056.00
2023-04-17T10:39:58.498Z,95058.00
2023-04-17T10:40:59.960Z,95054.00
2023-04-17T10:41:58.505Z,95052.00
2023-04-17T10:42:58.556Z,95052.00
2023-04-17T10:43:58.621Z,95052.00
2023-04-17T10:44:58.653Z,95052.00
2023-04-17T10:45:58.685Z,95052.00
2023-04-17T10:46:58.658Z,95052.00
2023-04-17T10:47:58.682Z,95050.00
2023-04-17T10:48:58.678Z,95054.00
2023-04-17T10:49:58.584Z,95054.00
2023-04-17T10:50:58.608Z,95050.00
2023-04-17T10:51:58.622Z,95052.00
2023-04-17T10:52:58.582Z,95052.00
2023-04-17T10:53:58.631Z,95048.00
2023-04-17T10:54:58.591Z,95050.00
2023-04-17T10:55:58.611Z,95048.00
2023-04-17T10:56:58.622Z,95046.00
2023-04-17T10:57:58.561Z,95044.00
2023-04-17T10:58:58.812Z,95046.00
2023-04-17T10:59:58.631Z,95046.00
2023-04-17T11:00:58.658Z,95048.00
2023-04-17T11:01:58.705Z,95046.00
2023-04-17T11:02:58.694Z,95050.00
2023-04-17T11:03:58.663Z,95048.00
2023-04-17T11:04:58.820Z,95046.00
2023-04-17T11:05:58.633Z,95046.00
2023-04-17T11:06:58.722Z,95042.00
2023-04-17T11:07:58.695Z,95042.00
2023-04-17T11:08:58.687Z,95040.00
2023-04-17T11:09:58.700Z,95042.00
2023-04-17T11:10:58.737Z,95036.00
2023-04-17T11:11:58.701Z,95044.00
2023-04-17T11:12:58.759Z,95044.00
2023-04-17T11:13:58.761Z,95044.00
2023-04-17T11:14:58.781Z,95046.00
2023-04-17T11:15:58.757Z,95044.00
2023-04-17T11:16:58.848Z,95048.00
2023-04-17T11:17:58.859Z,95050.00
2023-04-17T11:18:58.803Z,95050.00
2023-04-17T11:19:58.866Z,95052.00
2023-04-17T11:20:58.830Z,95052.00
2023-04-17T11:21:59.055Z,95050.00
2023-04-17T11:22:58.931Z,95048.00
2023-04-17T11:23:58.963Z,95046.00
2023-04-17T11:24:59.014Z,95046.00
2023-04-17T11:25:59.162Z,95046.00
2023-04-17T11:26:59.113Z,95048.00
2023-04-17T11:27:59.127Z,95046.00
2023-04-17T11:28:59.097Z,95046.00
2023-04-17T11:29:59.109Z,95046.00
2023-04-17T11:30:59.107Z,95046.00
2023-04-17T11:31:59.067Z,95044.00
2023-04-17T11:32:59.200Z,95042.00
2023-04-17T11:33:59.124Z,95046.00
2023-04-17T11:34:59.175Z,95044.00
2023-04-17T11:35:59.130Z,95042.00
2023-04-17T11:36:59.140Z,95044.00
2023-04-17T11:37:59.144Z,95044.00
2023-04-17T11:38:59.137Z,95044.00
2023-04-17T11:39:59.155Z,95048.00
2023-04-17T11:40:59.196Z,95042.00
2023-04-17T11:41:59.170Z,95046.00
2023-04-17T11:42:59.143Z,95042.00
2023-04-17T11:43:59.126Z,95042.00
2023-04-17T11:44:59.078Z,95044.00